sensor_id;sensor_type;location;lat;lon;timestamp;pressure;altitude;pressure_sealevel;temperature;humidity
43153;BME280;28756;49.064;9.290;2023-03-01T00:01:47;99917.47;;;-3.05;100.00
43153;BME280;28756;49.064;9.290;2023-03-01T00:04:13;99919.19;;;-3.04;100.00
43153;BME280;28756;49.064;9.290;2023-03-01T00:06:39;99920.09;;;-3.00;100.00
43153;BME280;28756;49.064;9.290;2023-03-01T00:09:04;99919.31;;;-2.94;100.00
43153;BME280;28756;49.064;9.290;2023-03-01T00:11:32;99923.63;;;-2.90;100.00
43153;BME280;28756;49.064;9.290;2023-03-01T00:14:01;99918.53;;;-2.90;100.00
43153;BME280;28756;49.064;9.290;2023-03-01T00:16:31;99916.84;;;-2.90;100.00
43153;BME280;28756;49.064;9.290;2023-03-01T00:18:57;99915.13;;;-2.92;100.00
43153;BME280;28756;49.064;9.290;2023-03-01T00:21:23;99919.31;;;-2.94;100.00
43153;BME280;28756;49.064;9.290;2023-03-01T00:23:50;99923.53;;;-2.98;100.00
43153;BME280;28756;49.064;9.290;2023-03-01T00:26:18;99923.53;;;-2.98;100.00
43153;BME280;28756;49.064;9.290;2023-03-01T00:28:44;99921.88;;;-2.94;100.00
43153;BME280;28756;49.064;9.290;2023-03-01T00:31:14;99920.16;;;-2.97;100.00
43153;BME280;28756;49.064;9.290;2023-03-01T00:33:41;99912.44;;;-3.02;100.00
43153;BME280;28756;49.064;9.290;2023-03-01T00:36:07;99920.84;;;-3.06;100.00
43153;BME280;28756;49.064;9.290;2023-03-01T00:38:39;99922.50;;;-3.08;100.00
43153;BME280;28756;49.064;9.290;2023-03-01T00:41:07;99920.78;;;-3.10;100.00
43153;BME280;28756;49.064;9.290;2023-03-01T00:43:34;99931.78;;;-3.14;100.00
43153;BME280;28756;49.064;9.290;2023-03-01T00:46:04;99932.59;;;-3.15;100.00
43153;BME280;28756;49.064;9.290;2023-03-01T00:48:30;99938.50;;;-3.20;100.00
43153;BME280;28756;49.064;9.290;2023-03-01T00:50:56;99942.69;;;-3.22;100.00
43153;BME280;28756;49.064;9.290;2023-03-01T00:53:21;99942.69;;;-3.20;100.00
43153;BME280;28756;49.064;9.290;2023-03-01T00:55:47;99932.47;;;-3.23;100.00
43153;BME280;28756;49.064;9.290;2023-03-01T00:58:13;99933.34;;;-3.23;100.00
43153;BME280;28756;49.064;9.290;2023-03-01T01:00:38;99930.75;;;-3.26;100.00
43153;BME280;28756;49.064;9.290;2023-03-01T01:03:04;99921.34;;;-3.31;100.00
43153;BME280;28756;49.064;9.290;2023-03-01T01:05:30;99923.91;;;-3.31;100.00
43153;BME280;28756;49.064;9.290;2023-03-01T01:07:56;99927.22;;;-3.34;100.00
43153;BME280;28756;49.064;9.290;2023-03-01T01:10:21;99927.22;;;-3.36;100.00
43153;BME280;28756;49.064;9.290;2023-03-01T01:12:47;99937.53;;;-3.26;100.00
43153;BME280;28756;49.064;9.290;2023-03-01T01:15:13;99936.63;;;-3.28;100.00
43153;BME280;28756;49.064;9.290;2023-03-01T01:17:42;99940.97;;;-3.23;100.00
43153;BME280;28756;49.064;9.290;2023-03-01T01:20:08;99929.13;;;-3.21;100.00
43153;BME280;28756;49.064;9.290;2023-03-01T01:22:34;99928.25;;;-3.23;100.00
43153;BME280;28756;49.064;9.290;2023-03-01T01:25:00;99925.66;;;-3.26;100.00
43153;BME280;28756;49.064;9.290;2023-03-01T01:27:26;99913.81;;;-3.25;100.00
43153;BME280;28756;49.064;9.290;2023-03-01T01:29:53;99915.47;;;-3.26;100.00
43153;BME280;28756;49.064;9.290;2023-03-01T01:32:18;99918.81;;;-3.31;100.00
43153;BME280;28756;49.064;9.290;2023-03-01T01:34:44;99913.66;;;-3.35;100.00
43153;BME280;28756;49.064;9.290;2023-03-01T01:37:10;99912.78;;;-3.37;100.00
43153;BME280;28756;49.064;9.290;2023-03-01T01:39:35;99903.41;;;-3.41;100.00
43153;BME280;28756;49.064;9.290;2023-03-01T01:42:01;99896.59;;;-3.42;100.00
43153;BME280;28756;49.064;9.290;2023-03-01T01:44:29;99893.16;;;-3.45;100.00
43153;BME280;28756;49.064;9.290;2023-03-01T01:47:07;99892.19;;;-3.52;100.00
43153;BME280;28756;49.064;9.290;2023-03-01T01:49:41;99880.31;;;-3.53;100.00
43153;BME280;28756;49.064;9.290;2023-03-01T01:52:29;99892.16;;;-3.55;100.00
43153;BME280;28756;49.064;9.290;2023-03-01T01:55:10;99879.31;;;-3.63;100.00
43153;BME280;28756;49.064;9.290;2023-03-01T01:57:41;99885.22;;;-3.66;100.00
43153;BME280;28756;49.064;9.290;2023-03-01T02:00:17;99874.16;;;-3.68;100.00
43153;BME280;28756;49.064;9.290;2023-03-01T02:02:45;99868.16;;;-3.71;100.00
43153;BME280;28756;49.064;9.290;2023-03-01T02:05:33;99866.44;;;-3.72;100.00
43153;BME280;28756;49.064;9.290;2023-03-01T02:08:02;99876.59;;;-3.74;100.00
43153;BME280;28756;49.064;9.290;2023-03-01T02:10:28;99868.91;;;-3.78;100.00
43153;BME280;28756;49.064;9.290;2023-03-01T02:12:55;99857.81;;;-3.82;100.00
43153;BME280;28756;49.064;9.290;2023-03-01T02:15:23;99850.22;;;-3.81;100.00
43153;BME280;28756;49.064;9.290;2023-03-01T02:17:49;99854.41;;;-3.84;100.00
43153;BME280;28756;49.064;9.290;2023-03-01T02:22:55;99852.66;;;-3.88;100.00
43153;BME280;28756;49.064;9.290;2023-03-01T02:25:43;99849.97;;;-3.94;100.00
43153;BME280;28756;49.064;9.290;2023-03-01T02:30:45;99842.41;;;-3.93;100.00
43153;BME280;28756;49.064;9.290;2023-03-01T02:33:33;99840.63;;;-3.99;100.00
43153;BME280;28756;49.064;9.290;2023-03-01T02:36:04;99838.06;;;-4.00;100.00
43153;BME280;28756;49.064;9.290;2023-03-01T02:38:32;99832.91;;;-4.05;100.00
43153;BME280;28756;49.064;9.290;2023-03-01T02:40:58;99827.84;;;-4.02;100.00
43153;BME280;28756;49.064;9.290;2023-03-01T02:43:30;99825.31;;;-4.02;100.00
43153;BME280;28756;49.064;9.290;2023-03-01T02:46:02;99828.72;;;-4.03;100.00
43153;BME280;28756;49.064;9.290;2023-03-01T02:48:49;99821.94;;;-4.02;100.00
43153;BME280;28756;49.064;9.290;2023-03-01T02:54:32;99816.75;;;-4.08;100.00
43153;BME280;28756;49.064;9.290;2023-03-01T02:56:59;99817.56;;;-4.09;100.00
43153;BME280;28756;49.064;9.290;2023-03-01T02:59:30;99821.75;;;-4.12;100.00
43153;BME280;28756;49.064;9.290;2023-03-01T03:01:57;99825.88;;;-4.18;100.00
43153;BME280;28756;49.064;9.290;2023-03-01T03:04:22;99820.78;;;-4.20;100.00
43153;BME280;28756;49.064;9.290;2023-03-01T03:06:50;99823.31;;;-4.20;100.00
43153;BME280;28756;49.064;9.290;2023-03-01T03:09:17;99820.75;;;-4.23;100.00
43153;BME280;28756;49.064;9.290;2023-03-01T03:11:44;99820.69;;;-4.24;100.00
43153;BME280;28756;49.064;9.290;2023-03-01T03:14:12;99818.97;;;-4.27;100.00
43153;BME280;28756;49.064;9.290;2023-03-01T03:16:44;99815.53;;;-4.29;100.00
43153;BME280;28756;49.064;9.290;2023-03-01T03:19:11;99814.75;;;-4.26;100.00
43153;BME280;28756;49.064;9.290;2023-03-01T03:21:37;99813.06;;;-4.24;100.00
43153;BME280;28756;49.064;9.290;2023-03-01T03:24:03;99814.69;;;-4.30;100.00
43153;BME280;28756;49.064;9.290;2023-03-01T03:26:29;99816.44;;;-4.27;100.00
43153;BME280;28756;49.064;9.290;2023-03-01T03:28:55;99803.75;;;-4.25;100.00
43153;BME280;28756;49.064;9.290;2023-03-01T03:31:21;99803.88;;;-4.19;100.00
43153;BME280;28756;49.064;9.290;2023-03-01T03:33:47;99804.72;;;-4.19;100.00
43153;BME280;28756;49.064;9.290;2023-03-01T03:36:22;99801.28;;;-4.22;100.00
43153;BME280;28756;49.064;9.290;2023-03-01T03:38:48;99805.53;;;-4.21;100.00
43153;BME280;28756;49.064;9.290;2023-03-01T03:41:15;99797.03;;;-4.22;100.00
43153;BME280;28756;49.064;9.290;2023-03-01T03:43:42;99796.16;;;-4.24;100.00
43153;BME280;28756;49.064;9.290;2023-03-01T03:46:10;99788.47;;;-4.29;100.00
43153;BME280;28756;49.064;9.290;2023-03-01T03:48:44;99781.84;;;-4.19;100.00
43153;BME280;28756;49.064;9.290;2023-03-01T03:51:13;99786.84;;;-4.23;100.00
43153;BME280;28756;49.064;9.290;2023-03-01T03:53:39;99786.84;;;-4.23;100.00
43153;BME280;28756;49.064;9.290;2023-03-01T03:56:06;99778.31;;;-4.27;100.00
43153;BME280;28756;49.064;9.290;2023-03-01T03:58:32;99779.16;;;-4.28;100.00
43153;BME280;28756;49.064;9.290;2023-03-01T04:00:58;99783.44;;;-4.25;100.00
43153;BME280;28756;49.064;9.290;2023-03-01T04:03:25;99769.97;;;-4.20;100.00
43153;BME280;28756;49.064;9.290;2023-03-01T04:05:52;99768.16;;;-4.27;100.00
43153;BME280;28756;49.064;9.290;2023-03-01T04:08:20;99775.78;;;-4.29;100.00
43153;BME280;28756;49.064;9.290;2023-03-01T04:10:52;99763.06;;;-4.30;100.00
43153;BME280;28756;49.064;9.290;2023-03-01T04:13:23;99764.72;;;-4.32;100.00
43153;BME280;28756;49.064;9.290;2023-03-01T04:15:52;99773.91;;;-4.37;100.00
43153;BME280;28756;49.064;9.290;2023-03-01T04:18:22;99762.91;;;-4.39;100.00
43153;BME280;28756;49.064;9.290;2023-03-01T04:20:48;99769.63;;;-4.43;100.00
43153;BME280;28756;49.064;9.290;2023-03-01T04:23:17;99765.47;;;-4.36;100.00
43153;BME280;28756;49.064;9.290;2023-03-01T04:25:54;99770.47;;;-4.41;100.00
43153;BME280;28756;49.064;9.290;2023-03-01T04:28:26;99766.19;;;-4.45;100.00
43153;BME280;28756;49.064;9.290;2023-03-01T04:30:54;99777.97;;;-4.49;100.00
43153;BME280;28756;49.064;9.290;2023-03-01T04:33:20;99772.81;;;-4.53;100.00
43153;BME280;28756;49.064;9.290;2023-03-01T04:35:46;99779.50;;;-4.58;100.00
43153;BME280;28756;49.064;9.290;2023-03-01T04:38:16;99779.41;;;-4.63;100.00
43153;BME280;28756;49.064;9.290;2023-03-01T04:40:41;99770.97;;;-4.62;100.00
43153;BME280;28756;49.064;9.290;2023-03-01T04:43:10;99776.81;;;-4.65;100.00
43153;BME280;28756;49.064;9.290;2023-03-01T04:45:38;99775.09;;;-4.67;100.00
43153;BME280;28756;49.064;9.290;2023-03-01T04:48:04;99781.06;;;-4.65;100.00
43153;BME280;28756;49.064;9.290;2023-03-01T04:50:30;99784.41;;;-4.66;100.00
43153;BME280;28756;49.064;9.290;2023-03-01T04:52:56;99779.34;;;-4.65;100.00
43153;BME280;28756;49.064;9.290;2023-03-01T04:55:26;99795.34;;;-4.70;100.00
43153;BME280;28756;49.064;9.290;2023-03-01T04:57:53;99791.94;;;-4.72;100.00
43153;BME280;28756;49.064;9.290;2023-03-01T05:00:20;99788.50;;;-4.74;100.00
43153;BME280;28756;49.064;9.290;2023-03-01T05:02:59;99786.06;;;-4.68;100.00
43153;BME280;28756;49.064;9.290;2023-03-01T05:05:30;99791.06;;;-4.73;100.00
43153;BME280;28756;49.064;9.290;2023-03-01T05:08:01;99786.75;;;-4.77;100.00
43153;BME280;28756;49.064;9.290;2023-03-01T05:10:29;99796.19;;;-4.71;100.00
43153;BME280;28756;49.064;9.290;2023-03-01T05:12:56;99788.56;;;-4.71;100.00
43153;BME280;28756;49.064;9.290;2023-03-01T05:15:27;99781.88;;;-4.68;100.00
43153;BME280;28756;49.064;9.290;2023-03-01T05:17:58;99780.16;;;-4.69;100.00
43153;BME280;28756;49.064;9.290;2023-03-01T05:20:26;99783.63;;;-4.64;100.00
43153;BME280;28756;49.064;9.290;2023-03-01T05:22:56;99787.06;;;-4.60;100.00
43153;BME280;28756;49.064;9.290;2023-03-01T05:25:22;99781.19;;;-4.57;100.00
43153;BME280;28756;49.064;9.290;2023-03-01T05:27:48;99782.81;;;-4.61;100.00
43153;BME280;28756;49.064;9.290;2023-03-01T05:30:15;99778.59;;;-4.61;100.00
43153;BME280;28756;49.064;9.290;2023-03-01T05:32:43;99780.25;;;-4.63;100.00
43153;BME280;28756;49.064;9.290;2023-03-01T05:35:11;99770.06;;;-4.66;100.00
43153;BME280;28756;49.064;9.290;2023-03-01T05:37:46;99772.50;;;-4.70;100.00
43153;BME280;28756;49.064;9.290;2023-03-01T05:40:18;99780.88;;;-4.76;100.00
43153;BME280;28756;49.064;9.290;2023-03-01T05:42:51;99779.97;;;-4.78;100.00
43153;BME280;28756;49.064;9.290;2023-03-01T05:45:18;99779.06;;;-4.80;100.00
43153;BME280;28756;49.064;9.290;2023-03-01T05:47:46;99778.22;;;-4.81;100.00
43153;BME280;28756;49.064;9.290;2023-03-01T05:50:25;99776.50;;;-4.83;100.00
43153;BME280;28756;49.064;9.290;2023-03-01T05:53:02;99779.06;;;-4.80;100.00
43153;BME280;28756;49.064;9.290;2023-03-01T05:55:30;99771.44;;;-4.82;100.00
43153;BME280;28756;49.064;9.290;2023-03-01T05:58:03;99780.91;;;-4.73;100.00
43153;BME280;28756;49.064;9.290;2023-03-01T06:00:30;99771.56;;;-4.76;100.00
43153;BME280;28756;49.064;9.290;2023-03-01T06:02:57;99773.34;;;-4.71;100.00
43153;BME280;28756;49.064;9.290;2023-03-01T06:05:23;99780.06;;;-4.72;100.00
43153;BME280;28756;49.064;9.290;2023-03-01T06:07:49;99786.84;;;-4.72;100.00
43153;BME280;28756;49.064;9.290;2023-03-01T06:10:17;99779.25;;;-4.71;100.00
43153;BME280;28756;49.064;9.290;2023-03-01T06:12:43;99779.25;;;-4.71;100.00
43153;BME280;28756;49.064;9.290;2023-03-01T06:15:12;99781.00;;;-4.68;100.00
43153;BME280;28756;49.064;9.290;2023-03-01T06:17:40;99770.84;;;-4.68;100.00
43153;BME280;28756;49.064;9.290;2023-03-01T06:20:27;99773.56;;;-4.57;100.00
43153;BME280;28756;49.064;9.290;2023-03-01T06:22:53;99771.09;;;-4.53;100.00
43153;BME280;28756;49.064;9.290;2023-03-01T06:25:23;99779.69;;;-4.48;100.00
43153;BME280;28756;49.064;9.290;2023-03-01T06:27:50;99774.78;;;-4.38;100.00
43153;BME280;28756;49.064;9.290;2023-03-01T06:30:19;99773.91;;;-4.37;100.00
43153;BME280;28756;49.064;9.290;2023-03-01T06:32:45;99771.34;;;-4.39;100.00
43153;BME280;28756;49.064;9.290;2023-03-01T06:35:14;99767.09;;;-4.40;100.00
43153;BME280;28756;49.064;9.290;2023-03-01T06:37:43;99766.25;;;-4.40;100.00
43153;BME280;28756;49.064;9.290;2023-03-01T06:40:10;99779.78;;;-4.41;100.00
43153;BME280;28756;49.064;9.290;2023-03-01T06:42:38;99772.19;;;-4.40;100.00
43153;BME280;28756;49.064;9.290;2023-03-01T06:45:06;99771.34;;;-4.39;100.00
43153;BME280;28756;49.064;9.290;2023-03-01T06:47:33;99762.97;;;-4.35;100.00
43153;BME280;28756;49.064;9.290;2023-03-01T06:50:00;99757.13;;;-4.29;100.00
43153;BME280;28756;49.064;9.290;2023-03-01T06:52:26;99759.75;;;-4.24;100.00
43153;BME280;28756;49.064;9.290;2023-03-01T06:54:52;99757.25;;;-4.21;100.00
43153;BME280;28756;49.064;9.290;2023-03-01T06:57:18;99755.59;;;-4.19;100.00
43153;BME280;28756;49.064;9.290;2023-03-01T06:59:44;99755.69;;;-4.15;100.00
43153;BME280;28756;49.064;9.290;2023-03-01T07:02:11;99754.06;;;-4.09;100.00
43153;BME280;28756;49.064;9.290;2023-03-01T07:04:38;99755.88;;;-4.02;100.00
43153;BME280;28756;49.064;9.290;2023-03-01T07:07:03;99751.69;;;-3.99;100.00
43153;BME280;28756;49.064;9.290;2023-03-01T07:09:29;99752.56;;;-3.97;100.00
43153;BME280;28756;49.064;9.290;2023-03-01T07:11:56;99752.59;;;-3.93;100.00
43153;BME280;28756;49.064;9.290;2023-03-01T07:14:22;99751.00;;;-3.87;100.00
43153;BME280;28756;49.064;9.290;2023-03-01T07:16:49;99747.66;;;-3.83;100.00
43153;BME280;28756;49.064;9.290;2023-03-01T07:19:15;99741.81;;;-3.80;100.00
43153;BME280;28756;49.064;9.290;2023-03-01T07:21:41;99736.78;;;-3.74;100.00
43153;BME280;28756;49.064;9.290;2023-03-01T07:24:08;99736.88;;;-3.69;100.00
43153;BME280;28756;49.064;9.290;2023-03-01T07:26:34;99741.13;;;-3.65;100.00
43153;BME280;28756;49.064;9.290;2023-03-01T07:29:02;99742.09;;;-3.58;100.00
43153;BME280;28756;49.064;9.290;2023-03-01T07:31:28;99741.31;;;-3.53;100.00
43153;BME280;28756;49.064;9.290;2023-03-01T07:33:55;99737.19;;;-3.44;100.00
43153;BME280;28756;49.064;9.290;2023-03-01T07:36:21;99749.16;;;-3.36;100.00
43153;BME280;28756;49.064;9.290;2023-03-01T07:38:46;99750.06;;;-3.30;100.00
43153;BME280;28756;49.064;9.290;2023-03-01T07:41:12;99742.53;;;-3.23;100.00
43153;BME280;28756;49.064;9.290;2023-03-01T07:43:38;99744.31;;;-3.14;100.00
43153;BME280;28756;49.064;9.290;2023-03-01T07:46:04;99738.47;;;-3.08;100.00
43153;BME280;28756;49.064;9.290;2023-03-01T07:48:32;99733.47;;;-2.99;100.00
43153;BME280;28756;49.064;9.290;2023-03-01T07:51:03;99724.25;;;-2.89;100.00
43153;BME280;28756;49.064;9.290;2023-03-01T07:53:29;99724.34;;;-2.78;100.00
43153;BME280;28756;49.064;9.290;2023-03-01T07:56:09;99725.31;;;-2.68;100.00
43153;BME280;28756;49.064;9.290;2023-03-01T07:58:40;99719.38;;;-2.66;100.00
43153;BME280;28756;49.064;9.290;2023-03-01T08:01:09;99721.16;;;-2.59;100.00
43153;BME280;28756;49.064;9.290;2023-03-01T08:03:36;99709.34;;;-2.47;100.00
43153;BME280;28756;49.064;9.290;2023-03-01T08:06:04;99711.97;;;-2.38;100.00
43153;BME280;28756;49.064;9.290;2023-03-01T08:08:31;99711.97;;;-2.38;100.00
43153;BME280;28756;49.064;9.290;2023-03-01T08:10:59;99708.66;;;-2.29;100.00
43153;BME280;28756;49.064;9.290;2023-03-01T08:13:25;99700.19;;;-2.25;100.00
43153;BME280;28756;49.064;9.290;2023-03-01T08:15:52;99701.09;;;-2.17;100.00
43153;BME280;28756;49.064;9.290;2023-03-01T08:18:19;99711.38;;;-2.04;100.00
43153;BME280;28756;49.064;9.290;2023-03-01T08:20:45;99698.69;;;-1.95;100.00
43153;BME280;28756;49.064;9.290;2023-03-01T08:23:11;99701.28;;;-1.86;100.00
43153;BME280;28756;49.064;9.290;2023-03-01T08:25:37;99699.66;;;-1.76;100.00
43153;BME280;28756;49.064;9.290;2023-03-01T08:28:03;99702.25;;;-1.70;100.00
43153;BME280;28756;49.064;9.290;2023-03-01T08:30:29;99694.63;;;-1.61;100.00
43153;BME280;28756;49.064;9.290;2023-03-01T08:32:55;99698.94;;;-1.52;100.00
43153;BME280;28756;49.064;9.290;2023-03-01T08:35:21;99703.19;;;-1.48;100.00
43153;BME280;28756;49.064;9.290;2023-03-01T08:37:47;99700.66;;;-1.46;100.00
43153;BME280;28756;49.064;9.290;2023-03-01T08:40:13;99696.47;;;-1.29;100.00
43153;BME280;28756;49.064;9.290;2023-03-01T08:42:40;99698.22;;;-1.20;100.00
43153;BME280;28756;49.064;9.290;2023-03-01T08:45:07;99689.69;;;-1.20;100.00
43153;BME280;28756;49.064;9.290;2023-03-01T08:47:33;99699.03;;;-1.24;100.00
43153;BME280;28756;49.064;9.290;2023-03-01T08:50:00;99694.81;;;-1.05;100.00
43153;BME280;28756;49.064;9.290;2023-03-01T08:52:26;99689.72;;;-1.05;100.00
43153;BME280;28756;49.064;9.290;2023-03-01T08:54:52;99682.91;;;-1.12;100.00
43153;BME280;28756;49.064;9.290;2023-03-01T08:57:18;99694.00;;;-1.07;100.00
43153;BME280;28756;49.064;9.290;2023-03-01T08:59:43;99690.59;;;-0.97;100.00
43153;BME280;28756;49.064;9.290;2023-03-01T09:02:16;99692.28;;;-0.94;100.00
43153;BME280;28756;49.064;9.290;2023-03-01T09:04:42;99695.72;;;-0.89;100.00
43153;BME280;28756;49.064;9.290;2023-03-01T09:07:09;99685.50;;;-0.87;100.00
43153;BME280;28756;49.064;9.290;2023-03-01T09:09:36;99686.38;;;-0.77;100.00
43153;BME280;28756;49.064;9.290;2023-03-01T09:12:03;99688.09;;;-0.73;100.00
43153;BME280;28756;49.064;9.290;2023-03-01T09:14:29;99691.47;;;-0.67;100.00
43153;BME280;28756;49.064;9.290;2023-03-01T09:16:55;99682.97;;;-0.66;100.00
43153;BME280;28756;49.064;9.290;2023-03-01T09:19:21;99677.03;;;-0.40;100.00
43153;BME280;28756;49.064;9.290;2023-03-01T09:21:47;99666.78;;;-0.34;100.00
43153;BME280;28756;49.064;9.290;2023-03-01T09:24:21;99665.09;;;-0.35;100.00
43153;BME280;28756;49.064;9.290;2023-03-01T09:26:47;99658.22;;;-0.06;100.00
43153;BME280;28756;49.064;9.290;2023-03-01T09:29:15;99647.19;;;-0.16;100.00
43153;BME280;28756;49.064;9.290;2023-03-01T09:31:41;99645.44;;;-0.03;100.00
43153;BME280;28756;49.064;9.290;2023-03-01T09:34:07;99651.41;;;0.04;100.00
43153;BME280;28756;49.064;9.290;2023-03-01T09:36:33;99640.31;;;0.08;100.00
43153;BME280;28756;49.064;9.290;2023-03-01T09:39:00;99635.16;;;0.19;100.00
43153;BME280;28756;49.064;9.290;2023-03-01T09:41:59;99637.69;;;0.26;100.00
43153;BME280;28756;49.064;9.290;2023-03-01T09:44:56;99637.63;;;0.36;100.00
43153;BME280;28756;49.064;9.290;2023-03-01T09:47:23;99629.06;;;0.47;100.00
43153;BME280;28756;49.064;9.290;2023-03-01T09:50:15;99619.56;;;0.71;100.00
43153;BME280;28756;49.064;9.290;2023-03-01T09:55:49;99618.59;;;0.94;100.00
43153;BME280;28756;49.064;9.290;2023-03-01T10:00:50;99609.91;;;1.12;100.00
43153;BME280;28756;49.064;9.290;2023-03-01T10:03:36;99608.91;;;1.30;100.00
43153;BME280;28756;49.064;9.290;2023-03-01T10:06:14;99601.16;;;1.39;100.00
43153;BME280;28756;49.064;9.290;2023-03-01T10:08:56;99606.28;;;1.39;100.00
43153;BME280;28756;49.064;9.290;2023-03-01T10:11:31;99598.38;;;1.64;100.00
43153;BME280;28756;49.064;9.290;2023-03-01T10:16:57;99590.41;;;1.89;100.00
43153;BME280;28756;49.064;9.290;2023-03-01T10:19:40;99593.19;;;3.02;100.00
43153;BME280;28756;49.064;9.290;2023-03-01T10:22:22;99579.13;;;3.24;100.00
43153;BME280;28756;49.064;9.290;2023-03-01T10:24:51;99579.75;;;4.30;92.45
43153;BME280;28756;49.064;9.290;2023-03-01T10:27:34;99566.06;;;4.29;92.12
43153;BME280;28756;49.064;9.290;2023-03-01T10:30:38;99564.22;;;5.10;82.71
43153;BME280;28756;49.064;9.290;2023-03-01T10:33:22;99559.09;;;4.72;82.24
43153;BME280;28756;49.064;9.290;2023-03-01T10:35:49;99557.66;;;4.60;83.69
43153;BME280;28756;49.064;9.290;2023-03-01T10:38:16;99546.72;;;5.22;78.90
43153;BME280;28756;49.064;9.290;2023-03-01T10:40:55;99542.78;;;5.42;75.30
43153;BME280;28756;49.064;9.290;2023-03-01T10:43:27;99546.28;;;4.69;80.59
43153;BME280;28756;49.064;9.290;2023-03-01T10:45:56;99540.53;;;5.63;78.22
43153;BME280;28756;49.064;9.290;2023-03-01T10:48:24;99540.34;;;5.69;72.26
43153;BME280;28756;49.064;9.290;2023-03-01T10:51:17;99532.19;;;5.84;71.41
43153;BME280;28756;49.064;9.290;2023-03-01T10:53:49;99547.19;;;5.38;69.68
43153;BME280;28756;49.064;9.290;2023-03-01T10:56:16;99530.22;;;5.94;68.33
43153;BME280;28756;49.064;9.290;2023-03-01T10:59:02;99531.94;;;6.25;69.07
43153;BME280;28756;49.064;9.290;2023-03-01T11:01:35;99531.19;;;6.20;66.80
43153;BME280;28756;49.064;9.290;2023-03-01T11:06:35;99516.38;;;6.27;64.37
43153;BME280;28756;49.064;9.290;2023-03-01T11:09:23;99514.28;;;5.78;66.06
43153;BME280;28756;49.064;9.290;2023-03-01T11:11:56;99509.91;;;5.50;67.69
43153;BME280;28756;49.064;9.290;2023-03-01T11:14:25;99512.50;;;6.12;65.55
43153;BME280;28756;49.064;9.290;2023-03-01T11:17:10;99505.75;;;5.76;63.71
43153;BME280;28756;49.064;9.290;2023-03-01T11:19:37;99500.38;;;6.15;64.52
43153;BME280;28756;49.064;9.290;2023-03-01T11:22:12;99497.91;;;6.39;63.17
43153;BME280;28756;49.064;9.290;2023-03-01T11:24:48;99492.94;;;5.73;64.38
43153;BME280;28756;49.064;9.290;2023-03-01T11:27:23;99492.25;;;5.66;64.13
43153;BME280;28756;49.064;9.290;2023-03-01T11:32:38;99482.38;;;6.69;63.15
43153;BME280;28756;49.064;9.290;2023-03-01T11:35:24;99478.25;;;6.89;61.82
43153;BME280;28756;49.064;9.290;2023-03-01T11:41:13;99467.16;;;6.31;62.60
43153;BME280;28756;49.064;9.290;2023-03-01T11:44:04;99457.69;;;6.59;63.63
43153;BME280;28756;49.064;9.290;2023-03-01T11:46:42;99458.03;;;6.48;72.04
43153;BME280;28756;49.064;9.290;2023-03-01T11:52:12;99458.09;;;5.27;71.24
43153;BME280;28756;49.064;9.290;2023-03-01T12:10:26;99420.81;;;5.68;72.36
43153;BME280;28756;49.064;9.290;2023-03-01T12:13:27;99410.75;;;5.59;76.36
43153;BME280;28756;49.064;9.290;2023-03-01T12:21:57;99385.09;;;5.54;75.11
43153;BME280;28756;49.064;9.290;2023-03-01T12:27:59;99382.03;;;5.72;74.01
43153;BME280;28756;49.064;9.290;2023-03-01T12:31:11;99373.66;;;5.63;73.36
43153;BME280;28756;49.064;9.290;2023-03-01T12:34:01;99375.72;;;5.80;74.35
43153;BME280;28756;49.064;9.290;2023-03-01T12:36:41;99373.06;;;5.83;70.78
43153;BME280;28756;49.064;9.290;2023-03-01T12:39:40;99371.66;;;5.73;70.37
43153;BME280;28756;49.064;9.290;2023-03-01T12:45:41;99380.75;;;5.57;74.85
43153;BME280;28756;49.064;9.290;2023-03-01T12:51:26;99355.84;;;5.84;75.08
43153;BME280;28756;49.064;9.290;2023-03-01T12:53:55;99358.81;;;5.72;75.14
43153;BME280;28756;49.064;9.290;2023-03-01T12:56:30;99347.56;;;6.03;78.30
43153;BME280;28756;49.064;9.290;2023-03-01T12:59:36;99348.03;;;5.85;74.27
43153;BME280;28756;49.064;9.290;2023-03-01T13:02:13;99349.53;;;5.36;78.40
43153;BME280;28756;49.064;9.290;2023-03-01T13:05:06;99347.22;;;5.27;79.40
43153;BME280;28756;49.064;9.290;2023-03-01T13:07:44;99341.81;;;5.34;79.68
43153;BME280;28756;49.064;9.290;2023-03-01T13:10:49;99337.59;;;5.32;78.53
43153;BME280;28756;49.064;9.290;2023-03-01T13:13:21;99336.13;;;5.53;78.12
43153;BME280;28756;49.064;9.290;2023-03-01T13:15:48;99340.88;;;5.67;79.19
43153;BME280;28756;49.064;9.290;2023-03-01T13:26:16;99337.75;;;5.56;77.72
43153;BME280;28756;49.064;9.290;2023-03-01T13:34:01;99332.19;;;5.41;77.26
43153;BME280;28756;49.064;9.290;2023-03-01T13:39:26;99316.66;;;5.71;80.37
43153;BME280;28756;49.064;9.290;2023-03-01T13:41:54;99312.78;;;5.58;79.62
43153;BME280;28756;49.064;9.290;2023-03-01T13:47:24;99317.59;;;5.68;76.22
43153;BME280;28756;49.064;9.290;2023-03-01T13:50:02;99309.25;;;5.60;77.21
43153;BME280;28756;49.064;9.290;2023-03-01T13:52:41;99312.31;;;5.73;80.85
43153;BME280;28756;49.064;9.290;2023-03-01T13:57:45;99319.44;;;5.65;77.54
43153;BME280;28756;49.064;9.290;2023-03-01T14:00:36;99308.91;;;5.43;77.40
43153;BME280;28756;49.064;9.290;2023-03-01T14:03:13;99310.19;;;5.58;78.67
43153;BME280;28756;49.064;9.290;2023-03-01T14:05:42;99309.19;;;5.62;81.92
43153;BME280;28756;49.064;9.290;2023-03-01T14:08:28;99309.78;;;5.42;79.47
43153;BME280;28756;49.064;9.290;2023-03-01T14:14:22;99306.13;;;5.49;79.57
43153;BME280;28756;49.064;9.290;2023-03-01T14:23:14;99302.81;;;5.45;77.36
43153;BME280;28756;49.064;9.290;2023-03-01T14:25:51;99299.09;;;5.26;78.76
43153;BME280;28756;49.064;9.290;2023-03-01T14:28:29;99295.03;;;5.18;78.50
43153;BME280;28756;49.064;9.290;2023-03-01T14:30:58;99302.50;;;5.28;77.50
43153;BME280;28756;49.064;9.290;2023-03-01T14:33:36;99303.69;;;5.16;77.15
43153;BME280;28756;49.064;9.290;2023-03-01T14:36:10;99297.66;;;5.17;78.89
43153;BME280;28756;49.064;9.290;2023-03-01T14:38:47;99310.38;;;5.21;76.50
43153;BME280;28756;49.064;9.290;2023-03-01T14:41:20;99307.97;;;5.15;76.68
43153;BME280;28756;49.064;9.290;2023-03-01T14:43:58;99317.22;;;5.22;76.86
43153;BME280;28756;49.064;9.290;2023-03-01T14:46:40;99318.09;;;5.23;76.04